AUA549 EKCH-LOWW
Flight info
| Callsign | AUA549 |
|---|---|
| Flight time | 1h 23m |
| Altitude | 35000 |
| Route | SALLO M44 KOGIM M602 USEDU DCT LUROS M725 HDO DCT EVIKU DCT BITSI DCT MIKOV MIKOV8W |
| Aircraft | A320/M-SDE3FGHIRWY/LB1 |
Departure
| Time | 2026-05-01 10:13 |
|---|---|
| Airport | Copenhagen Kastrup Airport (EKCH) |
Arrival
| Time | 2026-05-01 11:36 |
|---|---|
| Airport | Vienna International Airport (LOWW) |
| Time | Latitude | Longitude | Altitude | Speed | Heading |
|---|---|---|---|---|---|
| 2026-05-01 09:46 | 55.62747 | 12.64049 | 24 ft | 0 kts | 34° |
| 2026-05-01 10:03 | 55.62743 | 12.64045 | 23 ft | 3 kts | 34° |
| 2026-05-01 10:03 | 55.62721 | 12.64018 | 26 ft | 3 kts | 34° |
| 2026-05-01 10:04 | 55.62703 | 12.63997 | 26 ft | 4 kts | 27° |
| 2026-05-01 10:04 | 55.62680 | 12.63988 | 24 ft | 4 kts | 332° |
| 2026-05-01 10:04 | 55.62668 | 12.64007 | 24 ft | 4 kts | 282° |
| 2026-05-01 10:04 | 55.62666 | 12.64022 | 25 ft | 0 kts | 304° |
| 2026-05-01 10:06 | 55.62667 | 12.64019 | 24 ft | 2 kts | 304° |
| 2026-05-01 10:07 | 55.62675 | 12.63998 | 24 ft | 2 kts | 303° |
| 2026-05-01 10:07 | 55.62681 | 12.63980 | 25 ft | 2 kts | 302° |
| 2026-05-01 10:07 | 55.62689 | 12.63957 | 23 ft | 5 kts | 301° |
| 2026-05-01 10:07 | 55.62696 | 12.63897 | 23 ft | 5 kts | 261° |
| 2026-05-01 10:08 | 55.62636 | 12.63894 | 24 ft | 13 kts | 126° |
| 2026-05-01 10:08 | 55.62582 | 12.64041 | 22 ft | 16 kts | 122° |
| 2026-05-01 10:08 | 55.62524 | 12.64202 | 21 ft | 14 kts | 123° |
| 2026-05-01 10:09 | 55.62483 | 12.64306 | 19 ft | 16 kts | 126° |
| 2026-05-01 10:09 | 55.62431 | 12.64422 | 18 ft | 10 kts | 134° |
| 2026-05-01 10:09 | 55.62369 | 12.64442 | 19 ft | 13 kts | 192° |
| 2026-05-01 10:09 | 55.62284 | 12.64399 | 19 ft | 12 kts | 195° |
| 2026-05-01 10:10 | 55.62202 | 12.64348 | 17 ft | 13 kts | 204° |
| 2026-05-01 10:10 | 55.62128 | 12.64286 | 17 ft | 10 kts | 205° |
| 2026-05-01 10:10 | 55.62008 | 12.64186 | 20 ft | 9 kts | 205° |
| 2026-05-01 10:11 | 55.61913 | 12.64107 | 25 ft | 15 kts | 206° |
| 2026-05-01 10:11 | 55.61826 | 12.64072 | 27 ft | 12 kts | 178° |
| 2026-05-01 10:11 | 55.61736 | 12.64083 | 26 ft | 15 kts | 176° |
| 2026-05-01 10:11 | 55.61641 | 12.64082 | 28 ft | 11 kts | 202° |
| 2026-05-01 10:12 | 55.61609 | 12.64041 | 27 ft | 0 kts | 221° |
| 2026-05-01 10:12 | 55.61423 | 12.63761 | 23 ft | 74 kts | 221° |
| 2026-05-01 10:12 | 55.60056 | 12.61665 | 43 ft | 176 kts | 221° |
| 2026-05-01 10:13 | 55.59152 | 12.60168 | 647 ft | 180 kts | 223° |
| 2026-05-01 10:13 | 55.58230 | 12.58678 | 1459 ft | 177 kts | 223° |
| 2026-05-01 10:13 | 55.57264 | 12.57271 | 1997 ft | 188 kts | 223° |
| 2026-05-01 10:14 | 55.54727 | 12.54749 | 2686 ft | 233 kts | 202° |
| 2026-05-01 10:14 | 55.53124 | 12.53789 | 3123 ft | 254 kts | 200° |
| 2026-05-01 10:14 | 55.51389 | 12.52808 | 3787 ft | 266 kts | 199° |
| 2026-05-01 10:14 | 55.49621 | 12.51803 | 4676 ft | 268 kts | 199° |
| 2026-05-01 10:15 | 55.47867 | 12.50781 | 5596 ft | 270 kts | 199° |
| 2026-05-01 10:15 | 55.46042 | 12.49968 | 6469 ft | 273 kts | 184° |
| 2026-05-01 10:15 | 55.44161 | 12.50446 | 7289 ft | 276 kts | 158° |
| 2026-05-01 10:15 | 55.42556 | 12.52290 | 8067 ft | 280 kts | 133° |
| 2026-05-01 10:16 | 55.41541 | 12.55208 | 8861 ft | 282 kts | 108° |
| 2026-05-01 10:16 | 55.41340 | 12.56321 | 9139 ft | 283 kts | 106° |
| 2026-05-01 10:16 | 55.39821 | 12.65334 | 10912 ft | 306 kts | 105° |
| 2026-05-01 10:17 | 55.37811 | 12.77182 | 12072 ft | 351 kts | 105° |
| 2026-05-01 10:17 | 55.37101 | 12.81313 | 12752 ft | 355 kts | 105° |
| 2026-05-01 10:18 | 55.35653 | 12.89654 | 14111 ft | 363 kts | 105° |
| 2026-05-01 10:18 | 55.34907 | 12.93907 | 14728 ft | 366 kts | 107° |
| 2026-05-01 10:18 | 55.33837 | 12.98004 | 15316 ft | 372 kts | 120° |
| 2026-05-01 10:19 | 55.32269 | 13.01646 | 15909 ft | 377 kts | 132° |
| 2026-05-01 10:19 | 55.30262 | 13.04649 | 16493 ft | 383 kts | 144° |
| 2026-05-01 10:19 | 55.27918 | 13.06927 | 17077 ft | 387 kts | 152° |
| 2026-05-01 10:20 | 55.23055 | 13.11201 | 18220 ft | 394 kts | 152° |
| 2026-05-01 10:20 | 55.20589 | 13.13362 | 18759 ft | 398 kts | 152° |
| 2026-05-01 10:20 | 55.18106 | 13.15541 | 19240 ft | 401 kts | 151° |
| 2026-05-01 10:20 | 55.15603 | 13.17739 | 19720 ft | 404 kts | 151° |
| 2026-05-01 10:21 | 55.13082 | 13.19950 | 20195 ft | 407 kts | 151° |
| 2026-05-01 10:21 | 55.07988 | 13.24408 | 21163 ft | 412 kts | 151° |
| 2026-05-01 10:21 | 55.05416 | 13.26657 | 21630 ft | 415 kts | 151° |
| 2026-05-01 10:22 | 55.00220 | 13.31175 | 22548 ft | 420 kts | 151° |
| 2026-05-01 10:22 | 54.94989 | 13.35707 | 23420 ft | 426 kts | 151° |
| 2026-05-01 10:23 | 54.92275 | 13.37825 | 23844 ft | 431 kts | 158° |
| 2026-05-01 10:23 | 54.86357 | 13.40052 | 24577 ft | 439 kts | 169° |
| 2026-05-01 10:23 | 54.83331 | 13.40861 | 24928 ft | 442 kts | 169° |
| 2026-05-01 10:24 | 54.77227 | 13.42491 | 25616 ft | 446 kts | 169° |
| 2026-05-01 10:24 | 54.71063 | 13.44143 | 26286 ft | 450 kts | 169° |
| 2026-05-01 10:25 | 54.64838 | 13.45822 | 26957 ft | 455 kts | 168° |
| 2026-05-01 10:25 | 54.58545 | 13.47512 | 27603 ft | 460 kts | 168° |
| 2026-05-01 10:26 | 54.55375 | 13.48356 | 27916 ft | 462 kts | 168° |
| 2026-05-01 10:26 | 54.52192 | 13.49202 | 28221 ft | 464 kts | 168° |
| 2026-05-01 10:26 | 54.45818 | 13.50861 | 28793 ft | 469 kts | 169° |
| 2026-05-01 10:27 | 54.39337 | 13.52483 | 29374 ft | 473 kts | 169° |
| 2026-05-01 10:27 | 54.32829 | 13.54354 | 29920 ft | 474 kts | 162° |
| 2026-05-01 10:28 | 54.29717 | 13.56162 | 30217 ft | 472 kts | 153° |
| 2026-05-01 10:28 | 54.23871 | 13.61115 | 30920 ft | 468 kts | 150° |
| 2026-05-01 10:28 | 54.20960 | 13.63611 | 31245 ft | 467 kts | 150° |
| 2026-05-01 10:29 | 54.15149 | 13.68546 | 31904 ft | 466 kts | 150° |
| 2026-05-01 10:29 | 54.12256 | 13.71027 | 32232 ft | 464 kts | 147° |
| 2026-05-01 10:30 | 54.07155 | 13.77519 | 32864 ft | 455 kts | 131° |
| 2026-05-01 10:30 | 54.02620 | 13.84904 | 33519 ft | 454 kts | 132° |
| 2026-05-01 10:31 | 53.97849 | 13.91932 | 34125 ft | 458 kts | 143° |
| 2026-05-01 10:31 | 53.92001 | 13.96411 | 34695 ft | 467 kts | 162° |
| 2026-05-01 10:32 | 53.85503 | 13.97710 | 35174 ft | 473 kts | 174° |
| 2026-05-01 10:32 | 53.82220 | 13.98039 | 35367 ft | 473 kts | 174° |
| 2026-05-01 10:33 | 53.69046 | 13.99432 | 35420 ft | 475 kts | 173° |
| 2026-05-01 10:34 | 53.59155 | 14.00476 | 35424 ft | 475 kts | 174° |
| 2026-05-01 10:34 | 53.52558 | 14.01154 | 35428 ft | 475 kts | 174° |
| 2026-05-01 10:35 | 53.42688 | 14.02165 | 35422 ft | 475 kts | 173° |
| 2026-05-01 10:35 | 53.36085 | 14.02859 | 35419 ft | 475 kts | 173° |
| 2026-05-01 10:36 | 53.26175 | 14.03892 | 35414 ft | 476 kts | 173° |
| 2026-05-01 10:37 | 53.19559 | 14.04565 | 35411 ft | 476 kts | 173° |
| 2026-05-01 10:37 | 53.09634 | 14.05563 | 35408 ft | 476 kts | 173° |
| 2026-05-01 10:38 | 53.03013 | 14.06245 | 35410 ft | 477 kts | 173° |
| 2026-05-01 10:38 | 52.96439 | 14.06917 | 35408 ft | 477 kts | 173° |
| 2026-05-01 10:39 | 52.89807 | 14.07587 | 35399 ft | 477 kts | 173° |
| 2026-05-01 10:39 | 52.83178 | 14.08253 | 35397 ft | 478 kts | 173° |
| 2026-05-01 10:40 | 52.76532 | 14.08917 | 35400 ft | 478 kts | 173° |
| 2026-05-01 10:40 | 52.69894 | 14.09578 | 35406 ft | 478 kts | 173° |
| 2026-05-01 10:41 | 52.63250 | 14.10249 | 35403 ft | 479 kts | 173° |
| 2026-05-01 10:42 | 52.53308 | 14.11246 | 35401 ft | 479 kts | 173° |
| 2026-05-01 10:42 | 52.46649 | 14.11900 | 35404 ft | 480 kts | 173° |
| 2026-05-01 10:43 | 52.39985 | 14.12547 | 35404 ft | 480 kts | 173° |
| 2026-05-01 10:43 | 52.33317 | 14.13202 | 35403 ft | 480 kts | 172° |
| 2026-05-01 10:44 | 52.26640 | 14.13866 | 35403 ft | 481 kts | 172° |
| 2026-05-01 10:44 | 52.19956 | 14.14514 | 35408 ft | 481 kts | 172° |
| 2026-05-01 10:45 | 52.13266 | 14.15171 | 35404 ft | 482 kts | 172° |
| 2026-05-01 10:45 | 52.06568 | 14.15841 | 35407 ft | 482 kts | 172° |
| 2026-05-01 10:46 | 51.99869 | 14.16493 | 35408 ft | 483 kts | 172° |
| 2026-05-01 10:46 | 51.93207 | 14.17128 | 35410 ft | 483 kts | 172° |
| 2026-05-01 10:47 | 51.86506 | 14.17909 | 35405 ft | 482 kts | 169° |
| 2026-05-01 10:47 | 51.79870 | 14.19267 | 35413 ft | 481 kts | 167° |
| 2026-05-01 10:48 | 51.73246 | 14.20802 | 35410 ft | 481 kts | 167° |
| 2026-05-01 10:48 | 51.66598 | 14.22223 | 35416 ft | 482 kts | 167° |
| 2026-05-01 10:49 | 51.59932 | 14.23543 | 35411 ft | 483 kts | 168° |
| 2026-05-01 10:49 | 51.53266 | 14.24856 | 35415 ft | 483 kts | 167° |
| 2026-05-01 10:50 | 51.46585 | 14.26198 | 35417 ft | 483 kts | 167° |
| 2026-05-01 10:50 | 51.39907 | 14.27547 | 35419 ft | 484 kts | 167° |
| 2026-05-01 10:51 | 51.33274 | 14.28876 | 35420 ft | 484 kts | 167° |
| 2026-05-01 10:51 | 51.26583 | 14.30209 | 35424 ft | 485 kts | 167° |
| 2026-05-01 10:52 | 51.19889 | 14.31539 | 35419 ft | 485 kts | 167° |
| 2026-05-01 10:52 | 51.13189 | 14.32866 | 35423 ft | 485 kts | 167° |
| 2026-05-01 10:53 | 51.06492 | 14.34181 | 35421 ft | 485 kts | 167° |
| 2026-05-01 10:53 | 50.99794 | 14.35506 | 35421 ft | 485 kts | 167° |
| 2026-05-01 10:54 | 50.93098 | 14.36854 | 35422 ft | 483 kts | 164° |
| 2026-05-01 10:54 | 50.86591 | 14.39201 | 35429 ft | 480 kts | 160° |
| 2026-05-01 10:55 | 50.80083 | 14.41631 | 35425 ft | 480 kts | 160° |
| 2026-05-01 10:55 | 50.73577 | 14.44034 | 35425 ft | 480 kts | 160° |
| 2026-05-01 10:56 | 50.67068 | 14.46428 | 35416 ft | 480 kts | 160° |
| 2026-05-01 10:56 | 50.60599 | 14.48803 | 35421 ft | 480 kts | 160° |
| 2026-05-01 10:57 | 50.54089 | 14.51198 | 35419 ft | 480 kts | 160° |
| 2026-05-01 10:57 | 50.47789 | 14.54307 | 35418 ft | 467 kts | 146° |
| 2026-05-01 10:58 | 50.42464 | 14.59731 | 35418 ft | 448 kts | 130° |
| 2026-05-01 10:58 | 50.37997 | 14.66442 | 35420 ft | 445 kts | 127° |
| 2026-05-01 10:59 | 50.33535 | 14.73183 | 35420 ft | 446 kts | 127° |
| 2026-05-01 10:59 | 50.29064 | 14.79906 | 35427 ft | 446 kts | 127° |
| 2026-05-01 11:00 | 50.24593 | 14.86634 | 35426 ft | 446 kts | 127° |
| 2026-05-01 11:00 | 50.20114 | 14.93361 | 35431 ft | 447 kts | 127° |
| 2026-05-01 11:01 | 50.15621 | 15.00083 | 35431 ft | 447 kts | 127° |
| 2026-05-01 11:01 | 50.11152 | 15.06749 | 35437 ft | 447 kts | 127° |
| 2026-05-01 11:02 | 50.06655 | 15.13445 | 35440 ft | 447 kts | 127° |
| 2026-05-01 11:02 | 50.02159 | 15.20135 | 35435 ft | 448 kts | 127° |
| 2026-05-01 11:03 | 49.97648 | 15.26820 | 35437 ft | 448 kts | 127° |
| 2026-05-01 11:03 | 49.93136 | 15.33472 | 35436 ft | 448 kts | 127° |
| 2026-05-01 11:04 | 49.89373 | 15.38996 | 35430 ft | 448 kts | 128° |
| 2026-05-01 11:04 | 49.84842 | 15.45635 | 35437 ft | 448 kts | 127° |
| 2026-05-01 11:05 | 49.80313 | 15.52284 | 35436 ft | 449 kts | 128° |
| 2026-05-01 11:05 | 49.75775 | 15.58918 | 35435 ft | 449 kts | 128° |
| 2026-05-01 11:06 | 49.71228 | 15.65546 | 35430 ft | 449 kts | 128° |
| 2026-05-01 11:06 | 49.66685 | 15.72163 | 35419 ft | 449 kts | 128° |
| 2026-05-01 11:07 | 49.59842 | 15.82059 | 35412 ft | 450 kts | 128° |
| 2026-05-01 11:07 | 49.55274 | 15.88651 | 35400 ft | 450 kts | 129° |
| 2026-05-01 11:08 | 49.52983 | 15.91948 | 35197 ft | 451 kts | 129° |
| 2026-05-01 11:08 | 49.50724 | 15.95190 | 34966 ft | 450 kts | 129° |
| 2026-05-01 11:08 | 49.46114 | 16.01812 | 33182 ft | 458 kts | 128° |
| 2026-05-01 11:09 | 49.43775 | 16.05169 | 32222 ft | 461 kts | 128° |
| 2026-05-01 11:09 | 49.41421 | 16.08544 | 31243 ft | 465 kts | 128° |
| 2026-05-01 11:09 | 49.39046 | 16.11943 | 30160 ft | 470 kts | 128° |
| 2026-05-01 11:10 | 49.34296 | 16.18675 | 28850 ft | 457 kts | 129° |
| 2026-05-01 11:10 | 49.31928 | 16.21896 | 28180 ft | 456 kts | 134° |
| 2026-05-01 11:10 | 49.29307 | 16.24642 | 27546 ft | 459 kts | 143° |
| 2026-05-01 11:10 | 49.26462 | 16.26867 | 26894 ft | 458 kts | 147° |
| 2026-05-01 11:11 | 49.23606 | 16.28981 | 26269 ft | 454 kts | 147° |
| 2026-05-01 11:11 | 49.20775 | 16.31070 | 25652 ft | 450 kts | 148° |
| 2026-05-01 11:11 | 49.17971 | 16.33138 | 25035 ft | 446 kts | 148° |
| 2026-05-01 11:11 | 49.15186 | 16.35192 | 24436 ft | 442 kts | 148° |
| 2026-05-01 11:12 | 49.12431 | 16.37226 | 23834 ft | 438 kts | 148° |
| 2026-05-01 11:12 | 49.09700 | 16.39238 | 23215 ft | 434 kts | 148° |
| 2026-05-01 11:12 | 49.07002 | 16.41226 | 22703 ft | 427 kts | 149° |
| 2026-05-01 11:12 | 49.04344 | 16.43185 | 22181 ft | 422 kts | 149° |
| 2026-05-01 11:13 | 49.01718 | 16.45118 | 21699 ft | 416 kts | 149° |
| 2026-05-01 11:13 | 48.99158 | 16.46998 | 21228 ft | 411 kts | 149° |
| 2026-05-01 11:13 | 48.96600 | 16.48871 | 20764 ft | 406 kts | 149° |
| 2026-05-01 11:13 | 48.94070 | 16.50721 | 20314 ft | 401 kts | 149° |
| 2026-05-01 11:14 | 48.93221 | 16.51340 | 20161 ft | 400 kts | 149° |
| 2026-05-01 11:14 | 48.89085 | 16.54361 | 19423 ft | 394 kts | 150° |
| 2026-05-01 11:14 | 48.86628 | 16.56157 | 18966 ft | 391 kts | 150° |
| 2026-05-01 11:14 | 48.84185 | 16.57941 | 18482 ft | 389 kts | 150° |
| 2026-05-01 11:15 | 48.81757 | 16.59711 | 17997 ft | 385 kts | 150° |
| 2026-05-01 11:15 | 48.79330 | 16.61428 | 17535 ft | 384 kts | 154° |
| 2026-05-01 11:15 | 48.76782 | 16.62658 | 17177 ft | 389 kts | 163° |
| 2026-05-01 11:15 | 48.74122 | 16.63524 | 16955 ft | 392 kts | 164° |
| 2026-05-01 11:16 | 48.71455 | 16.64395 | 16689 ft | 391 kts | 164° |
| 2026-05-01 11:16 | 48.68802 | 16.65265 | 16428 ft | 389 kts | 164° |
| 2026-05-01 11:16 | 48.66161 | 16.66135 | 16168 ft | 387 kts | 164° |
| 2026-05-01 11:16 | 48.63533 | 16.66999 | 15910 ft | 386 kts | 165° |
| 2026-05-01 11:17 | 48.60871 | 16.67541 | 15648 ft | 387 kts | 176° |
| 2026-05-01 11:17 | 48.58177 | 16.67239 | 15390 ft | 389 kts | 189° |
| 2026-05-01 11:17 | 48.55589 | 16.66087 | 15116 ft | 389 kts | 202° |
| 2026-05-01 11:17 | 48.53216 | 16.64145 | 14848 ft | 388 kts | 214° |
| 2026-05-01 11:18 | 48.51063 | 16.61708 | 14572 ft | 386 kts | 216° |
| 2026-05-01 11:18 | 48.48764 | 16.59656 | 14313 ft | 383 kts | 203° |
| 2026-05-01 11:18 | 48.46245 | 16.58432 | 14027 ft | 379 kts | 189° |
| 2026-05-01 11:18 | 48.43638 | 16.58066 | 13770 ft | 375 kts | 176° |
| 2026-05-01 11:19 | 48.41067 | 16.58522 | 13519 ft | 370 kts | 164° |
| 2026-05-01 11:19 | 48.38588 | 16.59547 | 13278 ft | 368 kts | 161° |
| 2026-05-01 11:19 | 48.36129 | 16.60592 | 13019 ft | 366 kts | 161° |
| 2026-05-01 11:19 | 48.33715 | 16.61611 | 12781 ft | 365 kts | 161° |
| 2026-05-01 11:20 | 48.31272 | 16.62637 | 12541 ft | 364 kts | 161° |
| 2026-05-01 11:20 | 48.28841 | 16.63658 | 12289 ft | 362 kts | 161° |
| 2026-05-01 11:20 | 48.26420 | 16.64673 | 12038 ft | 360 kts | 161° |
| 2026-05-01 11:20 | 48.24009 | 16.65682 | 11815 ft | 359 kts | 161° |
| 2026-05-01 11:21 | 48.21603 | 16.66687 | 11578 ft | 358 kts | 161° |
| 2026-05-01 11:21 | 48.19213 | 16.67689 | 11340 ft | 356 kts | 161° |
| 2026-05-01 11:21 | 48.16822 | 16.68693 | 10790 ft | 358 kts | 161° |
| 2026-05-01 11:21 | 48.14457 | 16.69680 | 10619 ft | 346 kts | 161° |
| 2026-05-01 11:22 | 48.12183 | 16.70625 | 10495 ft | 333 kts | 161° |
| 2026-05-01 11:22 | 48.09989 | 16.71535 | 10377 ft | 321 kts | 161° |
| 2026-05-01 11:22 | 48.07869 | 16.72413 | 10244 ft | 311 kts | 161° |
| 2026-05-01 11:22 | 48.05814 | 16.73267 | 10074 ft | 303 kts | 161° |
| 2026-05-01 11:23 | 48.03801 | 16.74110 | 9807 ft | 298 kts | 161° |
| 2026-05-01 11:23 | 48.01814 | 16.74941 | 9602 ft | 295 kts | 161° |
| 2026-05-01 11:23 | 47.99839 | 16.75761 | 9409 ft | 294 kts | 161° |
| 2026-05-01 11:23 | 47.97872 | 16.76577 | 9206 ft | 293 kts | 161° |
| 2026-05-01 11:24 | 47.95912 | 16.77391 | 9018 ft | 292 kts | 161° |
| 2026-05-01 11:24 | 47.94615 | 16.77930 | 8879 ft | 291 kts | 161° |
| 2026-05-01 11:24 | 47.90089 | 16.79804 | 8417 ft | 289 kts | 161° |
| 2026-05-01 11:25 | 47.88151 | 16.80602 | 8232 ft | 288 kts | 161° |
| 2026-05-01 11:25 | 47.84293 | 16.82194 | 7843 ft | 286 kts | 161° |
| 2026-05-01 11:25 | 47.82397 | 16.82972 | 7678 ft | 278 kts | 161° |
| 2026-05-01 11:26 | 47.80567 | 16.83720 | 7525 ft | 268 kts | 161° |
| 2026-05-01 11:26 | 47.77037 | 16.85162 | 7249 ft | 262 kts | 161° |
| 2026-05-01 11:26 | 47.75279 | 16.85883 | 7100 ft | 262 kts | 161° |
| 2026-05-01 11:27 | 47.73498 | 16.86402 | 6925 ft | 263 kts | 179° |
| 2026-05-01 11:27 | 47.71729 | 16.85737 | 6740 ft | 265 kts | 210° |
| 2026-05-01 11:27 | 47.70407 | 16.83880 | 6536 ft | 263 kts | 241° |
| 2026-05-01 11:27 | 47.69772 | 16.81366 | 6330 ft | 261 kts | 258° |
| 2026-05-01 11:28 | 47.69586 | 16.78737 | 6123 ft | 254 kts | 283° |
| 2026-05-01 11:28 | 47.70226 | 16.76375 | 5938 ft | 244 kts | 311° |
| 2026-05-01 11:28 | 47.71479 | 16.74775 | 5752 ft | 236 kts | 337° |
| 2026-05-01 11:29 | 47.74587 | 16.73378 | 5385 ft | 233 kts | 347° |
| 2026-05-01 11:29 | 47.76148 | 16.72734 | 5198 ft | 232 kts | 347° |
| 2026-05-01 11:29 | 47.79375 | 16.71508 | 4852 ft | 239 kts | 347° |
| 2026-05-01 11:30 | 47.80951 | 16.70857 | 4604 ft | 232 kts | 347° |
| 2026-05-01 11:30 | 47.82502 | 16.70208 | 4484 ft | 240 kts | 346° |
| 2026-05-01 11:30 | 47.84130 | 16.69528 | 4370 ft | 241 kts | 346° |
| 2026-05-01 11:30 | 47.85710 | 16.68865 | 4169 ft | 232 kts | 346° |
| 2026-05-01 11:31 | 47.87246 | 16.68222 | 4014 ft | 225 kts | 345° |
| 2026-05-01 11:31 | 47.88720 | 16.67605 | 3873 ft | 215 kts | 345° |
| 2026-05-01 11:31 | 47.90144 | 16.67009 | 3719 ft | 211 kts | 346° |
| 2026-05-01 11:31 | 47.91559 | 16.66416 | 3569 ft | 212 kts | 345° |
| 2026-05-01 11:32 | 47.92967 | 16.65825 | 3418 ft | 210 kts | 346° |
| 2026-05-01 11:32 | 47.94368 | 16.65237 | 3266 ft | 207 kts | 346° |
| 2026-05-01 11:32 | 47.95724 | 16.64667 | 3142 ft | 195 kts | 345° |
| 2026-05-01 11:32 | 47.96949 | 16.64152 | 3029 ft | 172 kts | 346° |
| 2026-05-01 11:33 | 47.98044 | 16.63691 | 2854 ft | 157 kts | 346° |
| 2026-05-01 11:33 | 47.99045 | 16.63270 | 2656 ft | 143 kts | 346° |
| 2026-05-01 11:33 | 47.99984 | 16.62876 | 2466 ft | 138 kts | 347° |
| 2026-05-01 11:33 | 48.00898 | 16.62491 | 2281 ft | 135 kts | 345° |
| 2026-05-01 11:34 | 48.01798 | 16.62113 | 2107 ft | 134 kts | 345° |
| 2026-05-01 11:34 | 48.02693 | 16.61736 | 1924 ft | 133 kts | 346° |
| 2026-05-01 11:34 | 48.03582 | 16.61362 | 1744 ft | 134 kts | 346° |
| 2026-05-01 11:34 | 48.04479 | 16.60984 | 1547 ft | 135 kts | 346° |
| 2026-05-01 11:35 | 48.05380 | 16.60604 | 1368 ft | 134 kts | 345° |
| 2026-05-01 11:35 | 48.06273 | 16.60227 | 1182 ft | 134 kts | 344° |
| 2026-05-01 11:35 | 48.07157 | 16.59854 | 1002 ft | 134 kts | 343° |
| 2026-05-01 11:35 | 48.08042 | 16.59482 | 806 ft | 132 kts | 343° |
| 2026-05-01 11:36 | 48.08932 | 16.59105 | 635 ft | 133 kts | 342° |
| 2026-05-01 11:36 | 48.09704 | 16.58776 | 620 ft | 81 kts | 345° |
| 2026-05-01 11:36 | 48.10014 | 16.58604 | 614 ft | 31 kts | 311° |
| 2026-05-01 11:36 | 48.10098 | 16.58390 | 620 ft | 10 kts | 297° |
| 2026-05-01 11:37 | 48.10099 | 16.58386 | 619 ft | 0 kts | 296° |
| 2026-05-01 11:37 | 48.10101 | 16.58380 | 616 ft | 3 kts | 296° |
| 2026-05-01 11:37 | 48.10120 | 16.58339 | 618 ft | 10 kts | 311° |
| 2026-05-01 11:37 | 48.10197 | 16.58291 | 619 ft | 13 kts | 347° |
| 2026-05-01 11:38 | 48.10291 | 16.58252 | 610 ft | 15 kts | 343° |
| 2026-05-01 11:38 | 48.10398 | 16.58206 | 616 ft | 17 kts | 345° |
| 2026-05-01 11:38 | 48.10502 | 16.58163 | 617 ft | 16 kts | 344° |
| 2026-05-01 11:38 | 48.10615 | 16.58113 | 613 ft | 18 kts | 344° |
| 2026-05-01 11:39 | 48.10737 | 16.58062 | 620 ft | 18 kts | 344° |
| 2026-05-01 11:39 | 48.10862 | 16.58008 | 614 ft | 18 kts | 343° |
| 2026-05-01 11:39 | 48.10987 | 16.57955 | 620 ft | 18 kts | 344° |
| 2026-05-01 11:39 | 48.11101 | 16.57882 | 622 ft | 18 kts | 314° |
| 2026-05-01 11:40 | 48.11159 | 16.57710 | 622 ft | 18 kts | 296° |
| 2026-05-01 11:40 | 48.11217 | 16.57534 | 622 ft | 19 kts | 296° |
| 2026-05-01 11:40 | 48.11274 | 16.57362 | 623 ft | 17 kts | 301° |
| 2026-05-01 11:40 | 48.11357 | 16.57364 | 614 ft | 14 kts | 24° |
| 2026-05-01 11:41 | 48.11433 | 16.57356 | 614 ft | 11 kts | 312° |
| 2026-05-01 11:41 | 48.11461 | 16.57286 | 623 ft | 8 kts | 317° |
| 2026-05-01 11:41 | 48.11506 | 16.57300 | 620 ft | 4 kts | 25° |
| 2026-05-01 11:41 | 48.11525 | 16.57315 | 613 ft | 3 kts | 26° |
| 2026-05-01 11:42 | 48.11538 | 16.57324 | 615 ft | 2 kts | 25° |
| 2026-05-01 11:42 | 48.11539 | 16.57325 | 616 ft | 0 kts | 25° |